createdAt,value
2018-05-10T00:01:07.441Z,5.03
2018-05-10T00:03:36.243Z,5.87
2018-05-10T00:06:04.535Z,6.17
2018-05-10T00:08:32.884Z,5.60
2018-05-10T00:11:01.103Z,6.13
2018-05-10T00:13:29.347Z,4.90
2018-05-10T00:15:57.720Z,5.70
2018-05-10T00:18:26.112Z,6.83
2018-05-10T00:20:55.051Z,5.13
2018-05-10T00:23:23.319Z,5.63
2018-05-10T00:25:51.539Z,5.43
2018-05-10T00:28:19.785Z,5.40
2018-05-10T00:30:48.004Z,6.00
2018-05-10T00:33:16.345Z,6.07
2018-05-10T00:35:44.844Z,4.67
2018-05-10T00:38:13.224Z,5.50
2018-05-10T00:40:41.530Z,5.03
2018-05-10T00:43:09.767Z,5.27
2018-05-10T00:45:37.986Z,5.63
2018-05-10T00:48:06.343Z,5.27
2018-05-10T00:50:34.667Z,5.30
2018-05-10T00:53:02.903Z,5.20
2018-05-10T00:55:31.122Z,5.10
2018-05-10T00:57:59.363Z,5.47
2018-05-10T01:00:27.589Z,5.20
2018-05-10T01:02:56.424Z,6.93
2018-05-10T01:05:24.574Z,4.97
2018-05-10T01:07:52.803Z,5.43
2018-05-10T01:10:21.215Z,6.07
2018-05-10T01:12:49.479Z,4.93
2018-05-10T01:15:17.875Z,4.93
2018-05-10T01:17:46.106Z,5.13
2018-05-10T01:20:14.419Z,5.60
2018-05-10T01:22:42.664Z,5.33
2018-05-10T01:25:10.885Z,4.87
2018-05-10T01:27:39.119Z,5.47
2018-05-10T01:30:07.338Z,5.10
2018-05-10T01:32:35.588Z,5.20
2018-05-10T01:35:15.494Z,5.07
2018-05-10T01:37:43.730Z,4.50
2018-05-10T01:40:11.951Z,4.83
2018-05-10T01:42:41.084Z,5.27
2018-05-10T01:45:09.301Z,5.10
2018-05-10T01:47:37.539Z,5.10
2018-05-10T01:50:05.928Z,6.13
2018-05-10T01:52:34.319Z,4.97
2018-05-10T01:55:03.345Z,4.70
2018-05-10T01:57:31.579Z,5.33
2018-05-10T01:59:59.803Z,4.93
2018-05-10T02:02:28.035Z,5.00
2018-05-10T02:04:56.914Z,5.20
2018-05-10T02:07:25.146Z,4.93
2018-05-10T02:09:53.666Z,5.57
2018-05-10T02:12:22.863Z,5.23
2018-05-10T02:14:51.201Z,5.17
2018-05-10T02:17:19.398Z,4.60
2018-05-10T02:19:48.398Z,4.97
2018-05-10T02:22:16.654Z,5.20
2018-05-10T02:24:44.891Z,4.90
2018-05-10T02:27:13.112Z,4.70
2018-05-10T02:29:41.413Z,4.87
2018-05-10T02:32:09.571Z,5.30
2018-05-10T02:34:37.806Z,4.90
2018-05-10T02:37:06.027Z,5.47
2018-05-10T02:39:34.399Z,4.50
2018-05-10T02:42:02.760Z,4.90
2018-05-10T02:44:31.000Z,5.00
2018-05-10T02:46:59.215Z,4.73
2018-05-10T02:49:27.604Z,5.07
2018-05-10T02:51:56.615Z,4.67
2018-05-10T02:54:24.823Z,5.00
2018-05-10T02:56:53.038Z,5.17
2018-05-10T02:59:21.279Z,5.57
2018-05-10T03:01:49.495Z,4.80
2018-05-10T03:04:17.735Z,5.27
2018-05-10T03:06:45.954Z,5.37
2018-05-10T03:09:14.190Z,4.73
2018-05-10T03:11:42.511Z,4.50
2018-05-10T03:14:11.511Z,4.83
2018-05-10T03:16:39.783Z,4.87
2018-05-10T03:19:08.147Z,5.70
2018-05-10T03:21:36.643Z,4.90
2018-05-10T03:24:04.939Z,4.97
2018-05-10T03:26:33.156Z,4.20
2018-05-10T03:29:01.400Z,4.60
2018-05-10T03:31:29.635Z,5.00
2018-05-10T03:33:57.859Z,4.93
2018-05-10T03:36:26.180Z,4.60
2018-05-10T03:38:54.576Z,4.50
2018-05-10T03:41:23.355Z,4.60
2018-05-10T03:43:51.574Z,4.33
2018-05-10T03:46:20.066Z,4.30
2018-05-10T03:48:48.223Z,5.20
2018-05-10T03:51:16.466Z,4.83
2018-05-10T03:53:44.775Z,4.77
2018-05-10T03:56:13.020Z,4.90
2018-05-10T03:58:41.394Z,4.33
2018-05-10T04:01:09.635Z,4.33
2018-05-10T04:03:49.539Z,4.03
2018-05-10T04:06:29.546Z,5.23
2018-05-10T04:09:10.348Z,4.67
2018-05-10T04:11:38.588Z,4.80
2018-05-10T04:14:06.806Z,5.00
2018-05-10T04:16:35.049Z,4.47
2018-05-10T04:19:04.030Z,4.97
2018-05-10T04:21:33.032Z,4.77
2018-05-10T04:24:02.015Z,5.20
2018-05-10T04:26:30.310Z,5.50
2018-05-10T04:28:59.349Z,4.40
2018-05-10T04:31:27.675Z,4.50
2018-05-10T04:33:56.171Z,4.37
2018-05-10T04:36:24.560Z,4.53
2018-05-10T04:38:52.771Z,4.47
2018-05-10T04:41:20.990Z,4.70
2018-05-10T04:43:49.990Z,5.20
2018-05-10T04:46:18.206Z,4.67
2018-05-10T04:48:46.443Z,4.30
2018-05-10T04:51:14.662Z,4.73
2018-05-10T04:53:42.900Z,4.80
2018-05-10T04:56:11.823Z,4.40
2018-05-10T04:58:40.060Z,4.43
2018-05-10T05:01:08.314Z,4.43
2018-05-10T05:03:37.339Z,4.47
2018-05-10T05:06:05.575Z,4.73
2018-05-10T05:08:33.813Z,4.57
2018-05-10T05:11:02.159Z,4.60
2018-05-10T05:13:30.451Z,4.93
2018-05-10T05:15:58.675Z,4.53
2018-05-10T05:18:26.906Z,4.40
2018-05-10T05:20:55.362Z,4.57
2018-05-10T05:23:25.039Z,4.50
2018-05-10T05:25:54.023Z,4.40
2018-05-10T05:28:22.254Z,4.43
2018-05-10T05:30:50.477Z,4.73
2018-05-10T05:33:19.478Z,4.70
2018-05-10T05:35:47.783Z,4.27
2018-05-10T05:38:16.016Z,4.47
2018-05-10T05:40:44.244Z,4.70
2018-05-10T05:43:12.552Z,4.90
2018-05-10T05:45:40.990Z,4.93
2018-05-10T05:48:09.371Z,4.07
2018-05-10T05:50:37.610Z,4.67
2018-05-10T05:53:05.833Z,4.10
2018-05-10T05:55:34.062Z,4.50
2018-05-10T05:58:02.447Z,4.50
2018-05-10T06:00:30.839Z,4.27
2018-05-10T06:03:04.178Z,4.87
2018-05-10T06:05:32.524Z,4.70
2018-05-10T06:08:00.907Z,4.60
2018-05-10T06:10:29.268Z,4.33
2018-05-10T06:12:58.070Z,4.43
2018-05-10T06:15:26.379Z,4.70
2018-05-10T06:17:54.695Z,4.33
2018-05-10T06:20:23.203Z,4.10
2018-05-10T06:22:51.423Z,4.43
2018-05-10T06:25:19.842Z,4.50
2018-05-10T06:27:48.059Z,4.00
2018-05-10T06:30:16.295Z,4.50
2018-05-10T06:32:44.520Z,4.73
2018-05-10T06:35:12.759Z,4.10
2018-05-10T06:37:40.978Z,4.67
2018-05-10T06:40:09.230Z,4.47
2018-05-10T06:42:37.455Z,4.80
2018-05-10T06:45:05.691Z,4.20
2018-05-10T06:47:33.911Z,3.83
2018-05-10T06:50:02.142Z,4.13
2018-05-10T06:52:30.366Z,3.97
2018-05-10T06:54:59.191Z,4.20
2018-05-10T06:57:27.540Z,4.33
2018-05-10T06:59:55.759Z,4.23
2018-05-10T07:02:24.001Z,4.20
2018-05-10T07:04:52.223Z,4.10
2018-05-10T07:07:20.455Z,4.23
2018-05-10T07:09:48.790Z,4.67
2018-05-10T07:12:16.924Z,4.07
2018-05-10T07:14:45.143Z,4.50
2018-05-10T07:17:13.383Z,4.30
2018-05-10T07:19:41.594Z,4.53
2018-05-10T07:22:09.834Z,4.33
2018-05-10T07:24:38.058Z,3.93
2018-05-10T07:27:06.291Z,4.10
2018-05-10T07:29:34.598Z,4.47
2018-05-10T07:32:02.833Z,4.70
2018-05-10T07:34:31.123Z,4.13
2018-05-10T07:37:00.135Z,4.03
2018-05-10T07:39:28.455Z,4.17
2018-05-10T07:41:56.769Z,4.47
2018-05-10T07:44:24.907Z,3.97
2018-05-10T07:46:53.295Z,4.17
2018-05-10T07:49:21.519Z,4.50
2018-05-10T07:51:49.755Z,4.23
2018-05-10T07:54:17.975Z,3.93
2018-05-10T07:56:46.215Z,5.07
2018-05-10T07:59:14.435Z,4.63
2018-05-10T08:01:42.709Z,4.23
2018-05-10T08:04:11.687Z,4.43
2018-05-10T08:06:40.268Z,4.47
2018-05-10T08:09:08.684Z,4.27
2018-05-10T08:11:37.049Z,4.10
2018-05-10T08:14:05.280Z,4.17
2018-05-10T08:16:33.515Z,4.40
2018-05-10T08:19:05.630Z,4.27
2018-05-10T08:21:33.923Z,4.50
2018-05-10T08:24:02.159Z,4.20
2018-05-10T08:26:30.375Z,4.23
2018-05-10T08:28:59.504Z,4.40
2018-05-10T08:31:27.780Z,4.57
2018-05-10T08:33:56.019Z,4.23
2018-05-10T08:36:24.463Z,4.87
2018-05-10T08:38:52.703Z,4.30
2018-05-10T08:41:21.038Z,3.87
2018-05-10T08:43:49.650Z,4.70
2018-05-10T08:46:18.054Z,4.40
2018-05-10T08:48:46.291Z,4.83
2018-05-10T08:51:14.509Z,4.60
2018-05-10T08:53:42.795Z,4.90
2018-05-10T08:56:11.020Z,4.03
2018-05-10T08:58:39.433Z,4.20
2018-05-10T09:01:07.666Z,4.80
2018-05-10T09:03:36.173Z,4.73
2018-05-10T09:06:04.388Z,5.07
2018-05-10T09:08:32.627Z,4.73
2018-05-10T09:11:00.943Z,5.10
2018-05-10T09:13:29.307Z,5.23
2018-05-10T09:15:57.635Z,5.13
2018-05-10T09:18:25.871Z,5.20
2018-05-10T09:20:54.090Z,5.00
2018-05-10T09:23:22.326Z,4.87
2018-05-10T09:25:50.547Z,4.90
2018-05-10T09:28:18.787Z,4.63
2018-05-10T09:30:47.003Z,4.83
2018-05-10T09:33:15.239Z,5.50
2018-05-10T09:35:43.458Z,5.00
2018-05-10T09:38:11.703Z,5.23
2018-05-10T09:40:39.923Z,5.50
2018-05-10T09:43:08.319Z,5.40
2018-05-10T09:45:36.642Z,5.67
2018-05-10T09:48:05.035Z,5.30
2018-05-10T09:50:33.403Z,5.47
2018-05-10T09:53:01.774Z,5.83
2018-05-10T09:55:30.050Z,10.97
2018-05-10T09:57:58.270Z,8.73
2018-05-10T10:00:28.857Z,7.77
2018-05-10T10:02:57.064Z,6.23
2018-05-10T10:05:25.310Z,6.30
2018-05-10T10:07:53.525Z,6.03
2018-05-10T10:10:21.763Z,6.33
2018-05-10T10:12:50.782Z,5.97
2018-05-10T10:15:19.101Z,5.83
2018-05-10T10:17:47.406Z,6.20
2018-05-10T10:20:15.643Z,5.77
2018-05-10T10:22:43.863Z,6.03
2018-05-10T10:25:12.100Z,6.50
2018-05-10T10:27:40.315Z,6.13
2018-05-10T10:30:08.552Z,6.33
2018-05-10T10:32:36.771Z,6.00
2018-05-10T10:35:05.007Z,5.80
2018-05-10T10:37:33.505Z,5.87
2018-05-10T10:40:01.992Z,5.83
2018-05-10T10:42:30.191Z,6.00
2018-05-10T10:44:58.427Z,6.03
2018-05-10T10:47:26.647Z,5.90
2018-05-10T10:49:54.923Z,6.20
2018-05-10T10:52:23.310Z,5.83
2018-05-10T10:54:51.848Z,5.97
2018-05-10T10:57:20.054Z,5.80
2018-05-10T10:59:48.604Z,5.67
2018-05-10T11:02:16.982Z,5.43
2018-05-10T11:04:45.191Z,5.53
2018-05-10T11:07:13.407Z,5.33
2018-05-10T11:09:42.118Z,5.33
2018-05-10T11:12:10.311Z,5.30
2018-05-10T11:14:39.315Z,5.63
2018-05-10T11:17:07.567Z,5.77
2018-05-10T11:19:35.963Z,5.27
2018-05-10T11:22:04.188Z,5.57
2018-05-10T11:24:32.424Z,5.43
2018-05-10T11:27:01.138Z,5.20
2018-05-10T11:29:29.375Z,5.17
2018-05-10T11:31:57.596Z,5.50
2018-05-10T11:34:25.979Z,5.40
2018-05-10T11:36:54.202Z,5.10
2018-05-10T11:39:22.430Z,5.47
2018-05-10T11:41:50.866Z,5.00
2018-05-10T11:44:19.119Z,5.20
2018-05-10T11:46:47.362Z,5.03
2018-05-10T11:49:15.587Z,5.17
2018-05-10T11:51:43.925Z,4.83
2018-05-10T11:54:12.140Z,4.90
2018-05-10T11:56:40.379Z,5.03
2018-05-10T11:59:08.595Z,4.40
2018-05-10T12:01:36.831Z,5.17
2018-05-10T12:04:05.359Z,4.70
2018-05-10T12:06:33.599Z,5.00
2018-05-10T12:09:02.396Z,4.80
2018-05-10T12:11:30.618Z,4.67
2018-05-10T12:13:58.835Z,5.00
2018-05-10T12:16:27.072Z,4.90
2018-05-10T12:18:55.283Z,4.80
2018-05-10T12:21:23.515Z,4.90
2018-05-10T12:23:51.740Z,4.40
2018-05-10T12:26:19.975Z,4.73
2018-05-10T12:28:48.191Z,4.60
2018-05-10T12:31:16.427Z,4.40
2018-05-10T12:33:44.639Z,4.33
2018-05-10T12:36:12.875Z,4.70
2018-05-10T12:38:41.119Z,5.23
2018-05-10T12:41:09.499Z,4.50
2018-05-10T12:43:37.827Z,4.33
2018-05-10T12:46:06.255Z,4.73
2018-05-10T12:48:34.485Z,4.90
2018-05-10T12:51:02.959Z,4.30
2018-05-10T12:53:31.179Z,4.13
2018-05-10T12:55:59.422Z,4.47
2018-05-10T12:58:27.814Z,4.50
2018-05-10T13:00:56.815Z,4.10
2018-05-10T13:03:25.798Z,4.17
2018-05-10T13:05:54.799Z,4.20
2018-05-10T13:08:23.796Z,3.73
2018-05-10T13:10:52.786Z,4.13
2018-05-10T13:13:21.797Z,3.90
2018-05-10T13:15:50.775Z,3.83
2018-05-10T13:18:19.759Z,4.00
2018-05-10T13:20:48.763Z,4.00
2018-05-10T13:23:17.746Z,4.13
2018-05-10T13:25:46.750Z,3.50
2018-05-10T13:28:15.742Z,3.80
2018-05-10T13:30:44.756Z,3.97
2018-05-10T13:33:12.962Z,3.90
2018-05-10T13:35:41.194Z,3.60
2018-05-10T13:38:09.417Z,3.63
2018-05-10T13:40:37.631Z,3.80
2018-05-10T13:43:06.631Z,3.37
2018-05-10T13:45:35.615Z,3.83
2018-05-10T13:48:04.619Z,3.70
2018-05-10T13:50:32.835Z,3.80
2018-05-10T13:53:01.112Z,3.33
2018-05-10T13:55:29.292Z,3.40
2018-05-10T13:57:57.528Z,3.70
2018-05-10T14:00:25.751Z,3.23
2018-05-10T14:02:53.984Z,3.50
2018-05-10T14:05:22.355Z,3.33
2018-05-10T14:07:50.588Z,3.30
2018-05-10T14:10:18.805Z,3.10
2018-05-10T14:12:47.067Z,3.30
2018-05-10T14:15:15.282Z,3.17
2018-05-10T14:17:43.526Z,3.07
2018-05-10T14:20:11.739Z,3.20
2018-05-10T14:22:39.971Z,3.50
2018-05-10T14:25:08.192Z,3.17
2018-05-10T14:27:36.422Z,2.70
2018-05-10T14:30:04.643Z,3.03
2018-05-10T14:32:32.950Z,3.10
2018-05-10T14:35:01.096Z,3.03
2018-05-10T14:37:29.738Z,3.07
2018-05-10T14:39:57.955Z,2.90
2018-05-10T14:42:26.190Z,3.00
2018-05-10T14:44:54.407Z,2.80
2018-05-10T14:47:22.640Z,2.80
2018-05-10T14:49:50.855Z,2.93
2018-05-10T14:52:19.090Z,2.90
2018-05-10T14:54:47.307Z,2.87
2018-05-10T14:57:15.534Z,2.67
2018-05-10T14:59:43.784Z,2.87
2018-05-10T15:02:12.024Z,2.70
2018-05-10T15:04:40.242Z,3.07
2018-05-10T15:07:08.648Z,2.67
2018-05-10T15:09:36.882Z,2.47
2018-05-10T15:12:05.868Z,2.73
2018-05-10T15:14:34.099Z,3.03
2018-05-10T15:17:03.145Z,2.90
2018-05-10T15:19:31.379Z,3.20
2018-05-10T15:21:59.598Z,2.60
2018-05-10T15:24:27.831Z,2.57
2018-05-10T15:26:56.047Z,2.87
2018-05-10T15:29:24.283Z,2.60
2018-05-10T15:31:52.503Z,2.67
2018-05-10T15:34:21.507Z,2.60
2018-05-10T15:36:50.494Z,2.73
2018-05-10T15:39:19.495Z,2.70
2018-05-10T15:41:48.474Z,2.80
2018-05-10T15:44:17.479Z,2.67
2018-05-10T15:46:46.467Z,2.50
2018-05-10T15:49:15.471Z,2.70
2018-05-10T15:51:43.691Z,2.60
2018-05-10T15:54:11.939Z,2.87
2018-05-10T15:56:40.160Z,2.77
2018-05-10T15:59:08.383Z,2.57
2018-05-10T16:01:36.616Z,2.40
2018-05-10T16:04:04.831Z,2.77
2018-05-10T16:06:33.137Z,2.60
2018-05-10T16:09:01.291Z,2.60
2018-05-10T16:11:29.526Z,2.80
2018-05-10T16:13:57.775Z,2.60
2018-05-10T16:16:25.971Z,2.60
2018-05-10T16:18:54.191Z,2.87
2018-05-10T16:21:22.431Z,2.70
2018-05-10T16:23:50.648Z,2.40
2018-05-10T16:26:18.928Z,2.40
2018-05-10T16:28:47.106Z,2.20
2018-05-10T16:31:15.339Z,2.40
2018-05-10T16:33:43.695Z,2.20
2018-05-10T16:36:11.938Z,2.40
2018-05-10T16:38:40.183Z,2.30
2018-05-10T16:41:08.422Z,2.60
2018-05-10T16:43:36.647Z,2.57
2018-05-10T16:46:05.369Z,2.43
2018-05-10T16:48:33.586Z,2.43
2018-05-10T16:51:01.824Z,2.50
2018-05-10T16:53:30.119Z,2.23
2018-05-10T16:55:58.283Z,2.53
2018-05-10T16:58:26.502Z,2.00
2018-05-10T17:00:54.724Z,2.60
2018-05-10T17:03:22.946Z,2.50
2018-05-10T17:05:51.171Z,2.50
2018-05-10T17:08:19.403Z,2.33
2018-05-10T17:10:47.624Z,2.63
2018-05-10T17:13:15.859Z,2.30
2018-05-10T17:15:44.079Z,2.23
2018-05-10T17:18:12.316Z,2.30
2018-05-10T17:20:40.535Z,2.00
2018-05-10T17:23:08.771Z,2.40
2018-05-10T17:25:36.987Z,2.57
2018-05-10T17:28:05.991Z,2.17
2018-05-10T17:30:34.977Z,2.37
2018-05-10T17:33:04.607Z,2.37
2018-05-10T17:35:32.830Z,2.13
2018-05-10T17:38:01.226Z,2.03
2018-05-10T17:40:29.423Z,2.23
2018-05-10T17:42:58.419Z,2.23
2018-05-10T17:45:27.407Z,2.37
2018-05-10T17:47:56.422Z,2.20
2018-05-10T17:50:25.388Z,2.10
2018-05-10T17:52:54.391Z,1.97
2018-05-10T17:55:22.697Z,2.07
2018-05-10T17:57:50.846Z,2.27
2018-05-10T18:00:19.067Z,2.20
2018-05-10T18:02:47.303Z,2.00
2018-05-10T18:05:15.518Z,2.20
2018-05-10T18:07:43.767Z,2.10
2018-05-10T18:10:11.978Z,2.10
2018-05-10T18:12:40.198Z,2.50
2018-05-10T18:15:08.432Z,2.40
2018-05-10T18:17:36.653Z,2.30
2018-05-10T18:20:05.835Z,1.97
2018-05-10T18:22:34.063Z,1.90
2018-05-10T18:25:02.298Z,2.17
2018-05-10T18:27:30.511Z,2.40
2018-05-10T18:29:58.744Z,2.20
2018-05-10T18:32:26.959Z,2.00
2018-05-10T18:34:55.199Z,2.10
2018-05-10T18:37:23.679Z,2.30
2018-05-10T18:39:51.916Z,2.00
2018-05-10T18:42:20.132Z,2.30
2018-05-10T18:44:48.366Z,2.20
2018-05-10T18:47:16.583Z,2.00
2018-05-10T18:49:44.818Z,2.17
2018-05-10T18:52:13.034Z,2.20
2018-05-10T18:54:41.324Z,2.03
2018-05-10T18:57:09.491Z,2.43
2018-05-10T18:59:37.735Z,2.13
2018-05-10T19:02:06.782Z,2.40
2018-05-10T19:04:35.022Z,2.13
2018-05-10T19:07:03.276Z,2.00
2018-05-10T19:09:32.286Z,2.20
2018-05-10T19:12:00.505Z,2.30
2018-05-10T19:14:28.739Z,2.13
2018-05-10T19:16:56.956Z,2.07
2018-05-10T19:19:25.170Z,2.00
2018-05-10T19:21:54.177Z,1.73
2018-05-10T19:24:22.390Z,2.20
2018-05-10T19:26:50.627Z,2.50
2018-05-10T19:29:18.843Z,1.87
2018-05-10T19:31:47.181Z,2.33
2018-05-10T19:34:15.303Z,2.00
2018-05-10T19:36:43.536Z,2.17
2018-05-10T19:39:11.755Z,1.90
2018-05-10T19:41:39.986Z,1.90
2018-05-10T19:44:08.206Z,2.20
2018-05-10T19:46:36.444Z,1.70
2018-05-10T19:49:04.671Z,2.20
2018-05-10T19:51:33.003Z,2.07
2018-05-10T19:54:01.223Z,2.10
2018-05-10T19:56:29.459Z,2.07
2018-05-10T19:58:57.691Z,2.23
2018-05-10T20:01:26.691Z,2.03
2018-05-10T20:03:55.682Z,2.30
2018-05-10T20:06:24.694Z,2.20
2018-05-10T20:08:52.911Z,1.93
2018-05-10T20:11:21.151Z,1.80
2018-05-10T20:13:49.482Z,2.03
2018-05-10T20:16:17.615Z,1.97
2018-05-10T20:18:45.831Z,2.03
2018-05-10T20:21:14.083Z,2.00
2018-05-10T20:23:42.295Z,2.20
2018-05-10T20:26:10.528Z,2.27
2018-05-10T20:28:38.848Z,2.00
2018-05-10T20:31:07.503Z,2.07
2018-05-10T20:33:35.715Z,2.07
2018-05-10T20:36:03.951Z,2.10
2018-05-10T20:38:32.171Z,2.13
2018-05-10T20:41:00.411Z,1.93
2018-05-10T20:43:28.626Z,1.80
2018-05-10T20:45:56.864Z,1.90
2018-05-10T20:48:25.076Z,1.87
2018-05-10T20:50:53.315Z,1.80
2018-05-10T20:53:21.531Z,1.90
2018-05-10T20:55:49.865Z,1.70
2018-05-10T20:58:17.986Z,1.80
2018-05-10T21:00:46.222Z,2.03
2018-05-10T21:03:14.439Z,2.17
2018-05-10T21:05:42.670Z,1.67
2018-05-10T21:08:11.678Z,2.03
2018-05-10T21:10:40.662Z,1.93
2018-05-10T21:13:09.000Z,1.90
2018-05-10T21:15:37.221Z,1.90
2018-05-10T21:18:05.455Z,2.10
2018-05-10T21:20:33.679Z,2.03
2018-05-10T21:23:02.011Z,1.87
2018-05-10T21:25:30.131Z,2.10
2018-05-10T21:27:58.362Z,2.23
2018-05-10T21:30:26.585Z,2.17
2018-05-10T21:32:54.870Z,2.00
2018-05-10T21:35:23.078Z,1.77
2018-05-10T21:37:51.311Z,1.90
2018-05-10T21:40:19.531Z,1.87
2018-05-10T21:42:47.824Z,1.70
2018-05-10T21:45:15.999Z,1.83
2018-05-10T21:47:44.235Z,1.90
2018-05-10T21:50:12.451Z,2.00
2018-05-10T21:52:40.692Z,1.87
2018-05-10T21:55:08.908Z,2.10
2018-05-10T21:57:37.147Z,1.83
2018-05-10T22:00:05.366Z,1.77
2018-05-10T22:02:34.171Z,1.80
2018-05-10T22:05:02.394Z,1.80
2018-05-10T22:07:30.627Z,1.80
2018-05-10T22:09:58.848Z,1.80
2018-05-10T22:12:27.083Z,1.90
2018-05-10T22:14:55.451Z,1.70
2018-05-10T22:17:23.686Z,1.90
2018-05-10T22:19:51.911Z,1.73
2018-05-10T22:22:20.147Z,1.83
2018-05-10T22:24:48.663Z,2.10
2018-05-10T22:27:16.899Z,1.80
2018-05-10T22:29:45.118Z,1.80
2018-05-10T22:32:13.347Z,2.07
2018-05-10T22:34:41.584Z,1.63
2018-05-10T22:37:09.799Z,1.80
2018-05-10T22:39:38.031Z,1.83
2018-05-10T22:42:06.246Z,1.73
2018-05-10T22:44:34.483Z,1.67
2018-05-10T22:47:02.698Z,1.70
2018-05-10T22:49:30.937Z,1.80
2018-05-10T22:51:59.151Z,1.80
2018-05-10T22:54:27.387Z,1.80
2018-05-10T22:56:55.602Z,1.80
2018-05-10T22:59:23.839Z,1.73
2018-05-10T23:01:52.063Z,1.87
2018-05-10T23:04:20.299Z,1.80
2018-05-10T23:06:48.519Z,1.70
2018-05-10T23:09:16.750Z,1.60
2018-05-10T23:11:44.971Z,1.90
2018-05-10T23:14:13.386Z,1.87
2018-05-10T23:16:41.603Z,1.70
2018-05-10T23:19:09.843Z,1.70
2018-05-10T23:21:38.055Z,1.77
2018-05-10T23:24:06.291Z,1.83
2018-05-10T23:26:35.031Z,2.30
2018-05-10T23:29:04.031Z,1.87
2018-05-10T23:31:33.015Z,1.40
2018-05-10T23:34:02.015Z,1.80
2018-05-10T23:36:31.003Z,1.80
2018-05-10T23:39:00.007Z,1.70
2018-05-10T23:41:28.227Z,1.87
2018-05-10T23:43:56.463Z,1.80
2018-05-10T23:46:24.683Z,1.70
2018-05-10T23:48:52.920Z,1.67
2018-05-10T23:51:21.141Z,1.80
2018-05-10T23:53:49.379Z,1.43
2018-05-10T23:56:17.595Z,1.77
2018-05-10T23:58:45.838Z,1.70
